sensor_id;sensor_type;location;lat;lon;timestamp;P1;durP1;ratioP1;P2;durP2;ratioP2
62151;SDS011;48139;47.474;19.034;2023-11-22T04:44:48;14.75;;;8.82;;
62151;SDS011;48139;47.474;19.034;2023-11-22T04:47:51;14.65;;;8.02;;
62151;SDS011;48139;47.474;19.034;2023-11-22T04:50:54;14.55;;;8.95;;
62151;SDS011;48139;47.474;19.034;2023-11-22T04:53:57;16.45;;;8.43;;
62151;SDS011;48139;47.474;19.034;2023-11-22T04:57:00;15.82;;;7.93;;
62151;SDS011;48139;47.474;19.034;2023-11-22T05:00:03;13.05;;;8.07;;
62151;SDS011;48139;47.474;19.034;2023-11-22T05:03:09;14.45;;;8.50;;
62151;SDS011;48139;47.474;19.034;2023-11-22T05:06:12;13.53;;;7.33;;
62151;SDS011;48139;47.474;19.034;2023-11-22T05:09:15;13.70;;;8.85;;
62151;SDS011;48139;47.474;19.034;2023-11-22T05:12:20;14.40;;;8.70;;
62151;SDS011;48139;47.474;19.034;2023-11-22T05:15:23;15.50;;;9.23;;
62151;SDS011;48139;47.474;19.034;2023-11-22T05:18:26;12.52;;;8.18;;
62151;SDS011;48139;47.474;19.034;2023-11-22T05:21:28;14.02;;;9.45;;
62151;SDS011;48139;47.474;19.034;2023-11-22T05:24:31;13.93;;;8.60;;
62151;SDS011;48139;47.474;19.034;2023-11-22T05:27:34;16.67;;;9.70;;
62151;SDS011;48139;47.474;19.034;2023-11-22T05:30:37;15.23;;;9.13;;
62151;SDS011;48139;47.474;19.034;2023-11-22T05:33:39;14.47;;;9.53;;
62151;SDS011;48139;47.474;19.034;2023-11-22T05:36:43;15.48;;;9.98;;
62151;SDS011;48139;47.474;19.034;2023-11-22T05:39:46;15.87;;;8.23;;
62151;SDS011;48139;47.474;19.034;2023-11-22T05:42:49;13.93;;;8.80;;
62151;SDS011;48139;47.474;19.034;2023-11-22T05:45:55;14.13;;;9.90;;
62151;SDS011;48139;47.474;19.034;2023-11-22T05:48:58;12.50;;;7.60;;
62151;SDS011;48139;47.474;19.034;2023-11-22T05:52:02;17.37;;;10.82;;
62151;SDS011;48139;47.474;19.034;2023-11-22T05:55:07;14.43;;;8.63;;
62151;SDS011;48139;47.474;19.034;2023-11-22T05:58:10;17.77;;;8.90;;
62151;SDS011;48139;47.474;19.034;2023-11-22T06:01:14;13.05;;;8.00;;
62151;SDS011;48139;47.474;19.034;2023-11-22T06:04:18;14.38;;;7.65;;
62151;SDS011;48139;47.474;19.034;2023-11-22T06:07:21;15.65;;;9.68;;
62151;SDS011;48139;47.474;19.034;2023-11-22T06:10:25;15.65;;;9.32;;
62151;SDS011;48139;47.474;19.034;2023-11-22T06:13:29;14.43;;;9.15;;
62151;SDS011;48139;47.474;19.034;2023-11-22T06:16:32;16.52;;;9.90;;
62151;SDS011;48139;47.474;19.034;2023-11-22T06:19:35;14.38;;;9.80;;
62151;SDS011;48139;47.474;19.034;2023-11-22T06:22:38;13.85;;;8.18;;
62151;SDS011;48139;47.474;19.034;2023-11-22T06:25:43;15.48;;;8.68;;
62151;SDS011;48139;47.474;19.034;2023-11-22T06:28:46;14.55;;;9.60;;
62151;SDS011;48139;47.474;19.034;2023-11-22T06:31:51;16.60;;;10.13;;
62151;SDS011;48139;47.474;19.034;2023-11-22T06:34:54;15.15;;;8.90;;
62151;SDS011;48139;47.474;19.034;2023-11-22T06:37:57;14.98;;;8.98;;
62151;SDS011;48139;47.474;19.034;2023-11-22T06:41:00;16.40;;;8.73;;
62151;SDS011;48139;47.474;19.034;2023-11-22T06:44:03;15.15;;;8.80;;
62151;SDS011;48139;47.474;19.034;2023-11-22T06:47:06;13.18;;;8.60;;
62151;SDS011;48139;47.474;19.034;2023-11-22T06:50:09;10.27;;;6.50;;
62151;SDS011;48139;47.474;19.034;2023-11-22T06:53:13;13.15;;;8.80;;
62151;SDS011;48139;47.474;19.034;2023-11-22T06:56:17;17.87;;;9.73;;
62151;SDS011;48139;47.474;19.034;2023-11-22T06:59:20;9.45;;;5.40;;
62151;SDS011;48139;47.474;19.034;2023-11-22T07:02:23;14.38;;;7.30;;
62151;SDS011;48139;47.474;19.034;2023-11-22T07:05:27;8.48;;;5.75;;
62151;SDS011;48139;47.474;19.034;2023-11-22T07:08:32;11.43;;;6.32;;
62151;SDS011;48139;47.474;19.034;2023-11-22T07:11:35;8.43;;;5.28;;
62151;SDS011;48139;47.474;19.034;2023-11-22T07:14:39;8.98;;;5.95;;
62151;SDS011;48139;47.474;19.034;2023-11-22T07:17:42;11.93;;;5.32;;
62151;SDS011;48139;47.474;19.034;2023-11-22T07:20:45;12.37;;;7.77;;
62151;SDS011;48139;47.474;19.034;2023-11-22T07:23:50;12.75;;;8.38;;
62151;SDS011;48139;47.474;19.034;2023-11-22T07:26:57;11.15;;;6.65;;
62151;SDS011;48139;47.474;19.034;2023-11-22T07:30:00;14.45;;;7.50;;
62151;SDS011;48139;47.474;19.034;2023-11-22T07:33:03;13.93;;;7.47;;
62151;SDS011;48139;47.474;19.034;2023-11-22T07:36:08;11.50;;;6.82;;
62151;SDS011;48139;47.474;19.034;2023-11-22T07:42:14;8.52;;;5.65;;
62151;SDS011;48139;47.474;19.034;2023-11-22T07:45:17;9.43;;;5.70;;
62151;SDS011;48139;47.474;19.034;2023-11-22T07:48:20;10.75;;;5.75;;
62151;SDS011;48139;47.474;19.034;2023-11-22T07:51:22;11.10;;;6.32;;
62151;SDS011;48139;47.474;19.034;2023-11-22T07:54:26;13.95;;;6.15;;
62151;SDS011;48139;47.474;19.034;2023-11-22T07:57:29;9.23;;;6.03;;
62151;SDS011;48139;47.474;19.034;2023-11-22T08:00:32;9.63;;;6.35;;
62151;SDS011;48139;47.474;19.034;2023-11-22T08:03:39;9.77;;;5.18;;
62151;SDS011;48139;47.474;19.034;2023-11-22T08:06:49;10.32;;;6.15;;
62151;SDS011;48139;47.474;19.034;2023-11-22T08:09:52;10.03;;;7.93;;
62151;SDS011;48139;47.474;19.034;2023-11-22T08:12:54;12.83;;;6.97;;
62151;SDS011;48139;47.474;19.034;2023-11-22T08:15:57;13.83;;;5.70;;
62151;SDS011;48139;47.474;19.034;2023-11-22T08:18:59;12.45;;;6.55;;
62151;SDS011;48139;47.474;19.034;2023-11-22T08:22:02;12.73;;;6.93;;
62151;SDS011;48139;47.474;19.034;2023-11-22T08:25:07;11.12;;;6.53;;
62151;SDS011;48139;47.474;19.034;2023-11-22T08:28:11;12.77;;;7.35;;
62151;SDS011;48139;47.474;19.034;2023-11-22T08:31:14;12.77;;;6.73;;
62151;SDS011;48139;47.474;19.034;2023-11-22T08:34:19;14.60;;;7.80;;
62151;SDS011;48139;47.474;19.034;2023-11-22T08:37:22;8.38;;;6.07;;
62151;SDS011;48139;47.474;19.034;2023-11-22T08:40:25;9.45;;;5.53;;
62151;SDS011;48139;47.474;19.034;2023-11-22T08:43:28;12.23;;;6.72;;
62151;SDS011;48139;47.474;19.034;2023-11-22T08:46:31;12.13;;;6.87;;
62151;SDS011;48139;47.474;19.034;2023-11-22T08:49:34;8.60;;;5.25;;
62151;SDS011;48139;47.474;19.034;2023-11-22T08:52:38;10.38;;;5.37;;
62151;SDS011;48139;47.474;19.034;2023-11-22T08:55:41;8.93;;;4.32;;
62151;SDS011;48139;47.474;19.034;2023-11-22T08:58:45;8.75;;;4.85;;
62151;SDS011;48139;47.474;19.034;2023-11-22T09:01:48;8.20;;;5.10;;
62151;SDS011;48139;47.474;19.034;2023-11-22T09:04:51;10.05;;;4.75;;
62151;SDS011;48139;47.474;19.034;2023-11-22T09:07:53;8.23;;;5.28;;
62151;SDS011;48139;47.474;19.034;2023-11-22T09:10:58;7.97;;;4.85;;
62151;SDS011;48139;47.474;19.034;2023-11-22T09:14:01;10.20;;;4.62;;
62151;SDS011;48139;47.474;19.034;2023-11-22T09:17:07;9.45;;;4.82;;
62151;SDS011;48139;47.474;19.034;2023-11-22T09:20:12;7.45;;;3.80;;
62151;SDS011;48139;47.474;19.034;2023-11-22T09:23:16;9.27;;;5.43;;
62151;SDS011;48139;47.474;19.034;2023-11-22T09:26:19;8.93;;;4.93;;
62151;SDS011;48139;47.474;19.034;2023-11-22T09:29:22;7.82;;;4.85;;
62151;SDS011;48139;47.474;19.034;2023-11-22T09:32:27;10.52;;;4.68;;
62151;SDS011;48139;47.474;19.034;2023-11-22T09:35:34;9.70;;;5.37;;
62151;SDS011;48139;47.474;19.034;2023-11-22T09:38:38;7.43;;;4.28;;
62151;SDS011;48139;47.474;19.034;2023-11-22T09:41:41;7.75;;;4.57;;
62151;SDS011;48139;47.474;19.034;2023-11-22T09:44:43;9.07;;;5.00;;
62151;SDS011;48139;47.474;19.034;2023-11-22T09:47:47;7.28;;;3.65;;
62151;SDS011;48139;47.474;19.034;2023-11-22T09:54:17;8.68;;;5.15;;
62151;SDS011;48139;47.474;19.034;2023-11-22T09:57:22;9.40;;;4.70;;
62151;SDS011;48139;47.474;19.034;2023-11-22T10:00:28;7.22;;;4.45;;
62151;SDS011;48139;47.474;19.034;2023-11-22T10:03:37;8.32;;;4.07;;
62151;SDS011;48139;47.474;19.034;2023-11-22T10:06:40;7.78;;;3.97;;
62151;SDS011;48139;47.474;19.034;2023-11-22T10:09:48;7.65;;;4.45;;
62151;SDS011;48139;47.474;19.034;2023-11-22T10:12:51;7.37;;;3.78;;
62151;SDS011;48139;47.474;19.034;2023-11-22T10:16:11;7.80;;;5.30;;
62151;SDS011;48139;47.474;19.034;2023-11-22T10:19:17;8.75;;;5.95;;
62151;SDS011;48139;47.474;19.034;2023-11-22T10:22:21;9.52;;;4.45;;
62151;SDS011;48139;47.474;19.034;2023-11-22T10:25:23;11.40;;;5.00;;
62151;SDS011;48139;47.474;19.034;2023-11-22T10:28:26;10.23;;;5.55;;
62151;SDS011;48139;47.474;19.034;2023-11-22T10:31:30;12.18;;;5.25;;
62151;SDS011;48139;47.474;19.034;2023-11-22T10:34:36;8.65;;;3.83;;
62151;SDS011;48139;47.474;19.034;2023-11-22T10:37:39;8.65;;;4.32;;
62151;SDS011;48139;47.474;19.034;2023-11-22T10:40:44;9.77;;;4.62;;
62151;SDS011;48139;47.474;19.034;2023-11-22T10:46:52;10.35;;;5.75;;
62151;SDS011;48139;47.474;19.034;2023-11-22T10:52:59;9.35;;;4.90;;
62151;SDS011;48139;47.474;19.034;2023-11-22T10:56:11;8.48;;;5.05;;
62151;SDS011;48139;47.474;19.034;2023-11-22T10:59:18;10.60;;;6.12;;
62151;SDS011;48139;47.474;19.034;2023-11-22T11:02:25;12.65;;;8.27;;
62151;SDS011;48139;47.474;19.034;2023-11-22T11:05:33;12.48;;;5.72;;
62151;SDS011;48139;47.474;19.034;2023-11-22T11:08:37;12.65;;;6.75;;
62151;SDS011;48139;47.474;19.034;2023-11-22T11:11:41;11.18;;;6.97;;
62151;SDS011;48139;47.474;19.034;2023-11-22T11:14:44;13.77;;;7.53;;
62151;SDS011;48139;47.474;19.034;2023-11-22T11:17:49;14.87;;;7.70;;
62151;SDS011;48139;47.474;19.034;2023-11-22T11:20:55;12.85;;;7.00;;
62151;SDS011;48139;47.474;19.034;2023-11-22T11:23:59;14.18;;;7.87;;
62151;SDS011;48139;47.474;19.034;2023-11-22T11:27:09;15.48;;;8.20;;
62151;SDS011;48139;47.474;19.034;2023-11-22T11:33:53;14.30;;;7.00;;
62151;SDS011;48139;47.474;19.034;2023-11-22T11:37:00;14.63;;;8.35;;
62151;SDS011;48139;47.474;19.034;2023-11-22T11:43:39;13.93;;;7.57;;
62151;SDS011;48139;47.474;19.034;2023-11-22T11:46:46;9.73;;;5.80;;
62151;SDS011;48139;47.474;19.034;2023-11-22T11:49:49;8.45;;;3.92;;
62151;SDS011;48139;47.474;19.034;2023-11-22T11:52:54;5.82;;;3.15;;
62151;SDS011;48139;47.474;19.034;2023-11-22T11:55:57;6.43;;;3.50;;
62151;SDS011;48139;47.474;19.034;2023-11-22T11:59:00;8.48;;;3.35;;
62151;SDS011;48139;47.474;19.034;2023-11-22T12:02:04;10.07;;;4.78;;
62151;SDS011;48139;47.474;19.034;2023-11-22T12:05:09;7.50;;;3.75;;
62151;SDS011;48139;47.474;19.034;2023-11-22T12:08:12;8.32;;;4.57;;
62151;SDS011;48139;47.474;19.034;2023-11-22T12:11:18;9.05;;;5.10;;
62151;SDS011;48139;47.474;19.034;2023-11-22T12:14:24;9.30;;;4.00;;
62151;SDS011;48139;47.474;19.034;2023-11-22T12:17:29;9.73;;;4.60;;
62151;SDS011;48139;47.474;19.034;2023-11-22T12:20:32;8.63;;;5.25;;
62151;SDS011;48139;47.474;19.034;2023-11-22T12:23:35;7.80;;;4.37;;
62151;SDS011;48139;47.474;19.034;2023-11-22T12:26:40;9.35;;;4.82;;
62151;SDS011;48139;47.474;19.034;2023-11-22T12:29:45;9.70;;;4.65;;
62151;SDS011;48139;47.474;19.034;2023-11-22T12:32:49;8.23;;;4.43;;
62151;SDS011;48139;47.474;19.034;2023-11-22T12:35:52;8.02;;;3.97;;
62151;SDS011;48139;47.474;19.034;2023-11-22T12:38:56;11.70;;;5.20;;
62151;SDS011;48139;47.474;19.034;2023-11-22T12:42:02;7.87;;;4.32;;
62151;SDS011;48139;47.474;19.034;2023-11-22T12:45:19;9.20;;;4.80;;
62151;SDS011;48139;47.474;19.034;2023-11-22T12:48:24;9.70;;;5.50;;
62151;SDS011;48139;47.474;19.034;2023-11-22T12:51:28;11.00;;;5.50;;
62151;SDS011;48139;47.474;19.034;2023-11-22T12:54:31;10.30;;;4.57;;
62151;SDS011;48139;47.474;19.034;2023-11-22T12:57:35;9.73;;;5.35;;
62151;SDS011;48139;47.474;19.034;2023-11-22T13:00:38;12.57;;;6.18;;
62151;SDS011;48139;47.474;19.034;2023-11-22T13:03:41;11.88;;;5.95;;
62151;SDS011;48139;47.474;19.034;2023-11-22T13:06:44;11.50;;;4.45;;
62151;SDS011;48139;47.474;19.034;2023-11-22T13:09:47;13.05;;;6.40;;
62151;SDS011;48139;47.474;19.034;2023-11-22T13:12:51;10.57;;;5.87;;
62151;SDS011;48139;47.474;19.034;2023-11-22T13:15:55;10.55;;;5.87;;
62151;SDS011;48139;47.474;19.034;2023-11-22T13:18:59;11.93;;;5.70;;
62151;SDS011;48139;47.474;19.034;2023-11-22T13:22:02;11.93;;;6.70;;
62151;SDS011;48139;47.474;19.034;2023-11-22T13:25:05;10.63;;;6.57;;
62151;SDS011;48139;47.474;19.034;2023-11-22T13:28:08;12.90;;;7.55;;
62151;SDS011;48139;47.474;19.034;2023-11-22T13:31:11;16.10;;;9.60;;
62151;SDS011;48139;47.474;19.034;2023-11-22T13:34:14;13.70;;;8.10;;
62151;SDS011;48139;47.474;19.034;2023-11-22T13:37:17;15.85;;;8.35;;
62151;SDS011;48139;47.474;19.034;2023-11-22T13:40:25;12.50;;;8.32;;
62151;SDS011;48139;47.474;19.034;2023-11-22T13:43:31;14.48;;;8.90;;
62151;SDS011;48139;47.474;19.034;2023-11-22T13:46:35;12.82;;;8.50;;
62151;SDS011;48139;47.474;19.034;2023-11-22T13:49:38;17.08;;;9.45;;
62151;SDS011;48139;47.474;19.034;2023-11-22T13:52:41;15.15;;;8.52;;
62151;SDS011;48139;47.474;19.034;2023-11-22T13:55:44;14.27;;;8.30;;
62151;SDS011;48139;47.474;19.034;2023-11-22T13:58:46;13.90;;;9.33;;
62151;SDS011;48139;47.474;19.034;2023-11-22T14:01:49;15.25;;;9.27;;
62151;SDS011;48139;47.474;19.034;2023-11-22T14:04:55;14.48;;;8.15;;
62151;SDS011;48139;47.474;19.034;2023-11-22T14:07:58;17.73;;;9.57;;
62151;SDS011;48139;47.474;19.034;2023-11-22T14:11:01;15.00;;;9.23;;
62151;SDS011;48139;47.474;19.034;2023-11-22T14:14:03;16.83;;;11.02;;
62151;SDS011;48139;47.474;19.034;2023-11-22T14:17:06;19.00;;;10.43;;
62151;SDS011;48139;47.474;19.034;2023-11-22T14:20:12;9.32;;;6.45;;
62151;SDS011;48139;47.474;19.034;2023-11-22T14:23:18;15.77;;;9.35;;
62151;SDS011;48139;47.474;19.034;2023-11-22T14:26:22;17.87;;;9.02;;
62151;SDS011;48139;47.474;19.034;2023-11-22T14:29:26;14.68;;;8.90;;
62151;SDS011;48139;47.474;19.034;2023-11-22T14:32:29;13.80;;;7.60;;
62151;SDS011;48139;47.474;19.034;2023-11-22T14:35:33;11.95;;;7.43;;
62151;SDS011;48139;47.474;19.034;2023-11-22T14:38:37;14.20;;;8.50;;
62151;SDS011;48139;47.474;19.034;2023-11-22T14:41:43;13.62;;;7.12;;
62151;SDS011;48139;47.474;19.034;2023-11-22T14:44:46;11.47;;;5.37;;
62151;SDS011;48139;47.474;19.034;2023-11-22T14:47:49;13.13;;;7.90;;
62151;SDS011;48139;47.474;19.034;2023-11-22T14:50:54;11.98;;;6.82;;
62151;SDS011;48139;47.474;19.034;2023-11-22T14:53:57;15.93;;;6.55;;
62151;SDS011;48139;47.474;19.034;2023-11-22T14:57:00;12.10;;;6.80;;
62151;SDS011;48139;47.474;19.034;2023-11-22T15:00:05;14.00;;;6.70;;
62151;SDS011;48139;47.474;19.034;2023-11-22T15:03:16;11.07;;;6.40;;
62151;SDS011;48139;47.474;19.034;2023-11-22T15:06:22;13.57;;;6.65;;
62151;SDS011;48139;47.474;19.034;2023-11-22T15:09:24;12.07;;;6.12;;
62151;SDS011;48139;47.474;19.034;2023-11-22T15:12:28;9.55;;;6.10;;
62151;SDS011;48139;47.474;19.034;2023-11-22T15:15:32;11.23;;;6.07;;
62151;SDS011;48139;47.474;19.034;2023-11-22T15:18:35;9.40;;;5.07;;
62151;SDS011;48139;47.474;19.034;2023-11-22T15:21:38;12.57;;;6.17;;
62151;SDS011;48139;47.474;19.034;2023-11-22T15:24:41;9.93;;;5.57;;
62151;SDS011;48139;47.474;19.034;2023-11-22T15:27:44;9.67;;;5.13;;
62151;SDS011;48139;47.474;19.034;2023-11-22T15:30:47;9.43;;;4.93;;
62151;SDS011;48139;47.474;19.034;2023-11-22T15:34:01;9.02;;;5.03;;
62151;SDS011;48139;47.474;19.034;2023-11-22T15:37:05;11.43;;;5.47;;
62151;SDS011;48139;47.474;19.034;2023-11-22T15:40:07;8.02;;;4.68;;
62151;SDS011;48139;47.474;19.034;2023-11-22T15:43:13;10.18;;;4.62;;
62151;SDS011;48139;47.474;19.034;2023-11-22T15:46:16;8.25;;;4.43;;
62151;SDS011;48139;47.474;19.034;2023-11-22T15:49:21;9.20;;;4.70;;
62151;SDS011;48139;47.474;19.034;2023-11-22T15:52:23;14.23;;;6.07;;
62151;SDS011;48139;47.474;19.034;2023-11-22T15:55:26;11.38;;;5.07;;
62151;SDS011;48139;47.474;19.034;2023-11-22T15:58:30;9.68;;;4.90;;
62151;SDS011;48139;47.474;19.034;2023-11-22T16:01:33;10.23;;;4.93;;
62151;SDS011;48139;47.474;19.034;2023-11-22T16:04:36;9.00;;;4.80;;
62151;SDS011;48139;47.474;19.034;2023-11-22T16:07:39;10.35;;;4.32;;
62151;SDS011;48139;47.474;19.034;2023-11-22T16:10:42;12.63;;;4.95;;
62151;SDS011;48139;47.474;19.034;2023-11-22T16:13:46;9.93;;;5.60;;
62151;SDS011;48139;47.474;19.034;2023-11-22T16:16:50;9.40;;;5.93;;
62151;SDS011;48139;47.474;19.034;2023-11-22T16:19:53;8.52;;;4.85;;
62151;SDS011;48139;47.474;19.034;2023-11-22T16:22:57;9.27;;;5.53;;
62151;SDS011;48139;47.474;19.034;2023-11-22T16:26:01;10.50;;;6.28;;
62151;SDS011;48139;47.474;19.034;2023-11-22T16:29:07;12.23;;;5.50;;
62151;SDS011;48139;47.474;19.034;2023-11-22T16:32:09;11.18;;;5.50;;
62151;SDS011;48139;47.474;19.034;2023-11-22T16:35:13;11.52;;;5.93;;
62151;SDS011;48139;47.474;19.034;2023-11-22T16:38:18;11.40;;;5.97;;
62151;SDS011;48139;47.474;19.034;2023-11-22T16:41:21;17.80;;;7.23;;
62151;SDS011;48139;47.474;19.034;2023-11-22T16:44:27;12.60;;;6.10;;
62151;SDS011;48139;47.474;19.034;2023-11-22T16:47:31;14.02;;;6.90;;
62151;SDS011;48139;47.474;19.034;2023-11-22T16:50:35;12.32;;;6.35;;
62151;SDS011;48139;47.474;19.034;2023-11-22T16:53:38;14.10;;;6.55;;
62151;SDS011;48139;47.474;19.034;2023-11-22T16:56:42;14.98;;;8.60;;
62151;SDS011;48139;47.474;19.034;2023-11-22T16:59:45;14.82;;;8.30;;
